Time;durP1;ratioP1;P1;durP2;ratioP2;P2;SDS_P1;SDS_P2;PMS_P1;PMS_P2;Temp;Humidity;BMP_temperature;BMP_pressure;BME280_temperature;BME280_humidity;BME280_pressure;Samples;Min_cycle;Max_cycle;Signal;HPM_P1;HPM_P2
2021/09/12 00:00:07;;;;;;;18.17;7.45;;;19.10;98.10;;;;;;5015894;28;20108;-85
2021/09/12 00:02:33;;;;;;;16.17;7.57;;;19.10;98.20;;;;;;5016067;28;20475;-85
2021/09/12 00:04:58;;;;;;;14.25;7.25;;;19.10;98.20;;;;;;5015798;28;20029;-86
2021/09/12 00:07:24;;;;;;;16.40;6.70;;;19.10;98.30;;;;;;5015894;28;20034;-85
2021/09/12 00:09:50;;;;;;;15.55;7.97;;;19.10;98.30;;;;;;5014912;28;20060;-86
2021/09/12 00:12:16;;;;;;;17.17;8.75;;;19.10;98.20;;;;;;5002978;28;20030;-85
2021/09/12 00:14:42;;;;;;;13.30;7.70;;;19.10;98.10;;;;;;5012582;28;20383;-86
2021/09/12 00:17:08;;;;;;;14.23;6.70;;;19.00;98.20;;;;;;5032760;28;20022;-85
2021/09/12 00:19:34;;;;;;;14.18;7.25;;;19.10;98.30;;;;;;5011807;28;20029;-85
2021/09/12 00:22:00;;;;;;;14.02;6.95;;;19.10;98.30;;;;;;5012708;28;20018;-85
2021/09/12 00:24:25;;;;;;;13.75;6.63;;;19.00;98.30;;;;;;5015536;28;20113;-85
2021/09/12 00:26:51;;;;;;;11.70;6.60;;;19.00;98.30;;;;;;5014501;28;20037;-85
2021/09/12 00:29:18;;;;;;;11.00;6.05;;;19.00;98.30;;;;;;4986927;28;20026;-86
2021/09/12 00:31:44;;;;;;;12.55;6.57;;;19.00;98.30;;;;;;5025248;28;20059;-85
2021/09/12 00:34:10;;;;;;;16.05;7.30;;;19.00;98.20;;;;;;5028020;28;20459;-85
2021/09/12 00:36:35;;;;;;;13.18;6.43;;;19.00;98.30;;;;;;5015553;28;20033;-85
2021/09/12 00:39:01;;;;;;;13.93;7.70;;;19.00;98.20;;;;;;5012208;28;20510;-85
2021/09/12 00:41:39;;;;;;;12.35;7.20;;;19.00;98.20;;;;;;4998380;28;20070;-85
2021/09/12 00:44:09;;;;;;;12.05;7.50;;;19.00;98.20;;;;;;5031697;28;20025;-85
2021/09/12 00:46:44;;;;;;;14.10;8.18;;;19.00;98.20;;;;;;5031853;28;20048;-85
2021/09/12 00:49:10;;;;;;;13.70;8.18;;;18.90;98.30;;;;;;5031585;28;20024;-85
2021/09/12 00:51:36;;;;;;;14.73;8.50;;;18.90;98.30;;;;;;5015021;28;20486;-85
2021/09/12 00:54:08;;;;;;;14.70;9.43;;;18.90;98.30;;;;;;5031433;28;20076;-85
2021/09/12 00:56:39;;;;;;;12.55;8.73;;;18.90;98.30;;;;;;5031324;28;20063;-86
2021/09/12 00:59:09;;;;;;;17.10;9.25;;;18.80;98.30;;;;;;5032677;28;20370;-85
2021/09/12 01:01:36;;;;;;;18.80;9.93;;;18.90;98.30;;;;;;5017857;28;20029;-85
2021/09/12 01:04:02;;;;;;;16.15;10.30;;;18.80;98.30;;;;;;5015002;28;20029;-85
2021/09/12 01:06:29;;;;;;;13.88;9.35;;;18.80;98.10;;;;;;5031135;28;20082;-85
2021/09/12 01:08:54;;;;;;;14.18;9.88;;;18.80;98.40;;;;;;5031348;28;20466;-85
2021/09/12 01:11:20;;;;;;;14.45;8.90;;;18.80;98.40;;;;;;5015074;28;20092;-85
2021/09/12 01:13:46;;;;;;;13.73;9.60;;;18.80;98.40;;;;;;5031005;28;20069;-85
2021/09/12 01:16:17;;;;;;;15.63;10.35;;;18.80;98.40;;;;;;4995096;28;20037;-85
2021/09/12 01:18:43;;;;;;;13.88;9.30;;;18.80;98.50;;;;;;5029217;28;20108;-85
2021/09/12 01:21:11;;;;;;;13.25;9.23;;;18.80;98.30;;;;;;5001804;28;20464;-85
2021/09/12 01:23:36;;;;;;;15.88;9.93;;;18.80;98.40;;;;;;5012360;28;20029;-85
2021/09/12 01:29:31;;;;;;;14.63;8.48;;;18.70;98.20;;;;;;5031524;28;20129;-85
2021/09/12 01:31:56;;;;;;;13.48;9.07;;;18.70;98.50;;;;;;4998223;28;20056;-85
2021/09/12 01:34:22;;;;;;;15.52;8.82;;;18.60;98.20;;;;;;4995274;28;20065;-85
2021/09/12 01:36:47;;;;;;;15.20;9.63;;;18.60;98.10;;;;;;5014476;28;20026;-85
2021/09/12 01:39:13;;;;;;;11.65;8.40;;;18.60;97.90;;;;;;4998206;28;20041;-85
2021/09/12 01:41:39;;;;;;;11.52;8.00;;;18.60;98.10;;;;;;5014616;28;20021;-85
2021/09/12 01:44:06;;;;;;;13.45;8.38;;;18.60;98.30;;;;;;5011227;28;20396;-86
2021/09/12 01:46:32;;;;;;;13.32;8.38;;;18.60;98.20;;;;;;5029671;28;20029;-85
2021/09/12 01:49:03;;;;;;;13.82;7.97;;;18.50;98.10;;;;;;5014487;28;20481;-85
2021/09/12 01:51:28;;;;;;;;;;;18.60;98.10;;;;;;5015867;28;20049;-85
2021/09/12 01:53:54;;;;;;;13.10;7.93;;;18.50;97.80;;;;;;5014446;28;20282;-85
2021/09/12 01:56:19;;;;;;;14.45;7.40;;;18.50;97.80;;;;;;5014659;28;20083;-85
2021/09/12 01:58:45;;;;;;;12.48;7.93;;;18.50;97.90;;;;;;5011215;28;20234;-85
2021/09/12 02:01:11;;;;;;;11.63;7.45;;;18.40;98.10;;;;;;5024213;28;20026;-85
2021/09/12 02:03:37;;;;;;;13.80;7.85;;;18.40;97.80;;;;;;5030759;28;20537;-85
2021/09/12 02:06:02;;;;;;;13.85;7.50;;;18.40;97.80;;;;;;5009699;28;20040;-85
2021/09/12 02:08:28;;;;;;;10.82;7.05;;;18.30;97.40;;;;;;5026740;28;20018;-84
2021/09/12 02:10:54;;;;;;;13.57;6.95;;;18.30;97.60;;;;;;5010126;28;20026;-85
2021/09/12 02:13:20;;;;;;;14.23;7.75;;;18.30;97.40;;;;;;5004470;28;20056;-84
2021/09/12 02:15:45;;;;;;;11.15;6.55;;;18.20;97.20;;;;;;5031896;28;20268;-85
2021/09/12 02:18:12;;;;;;;10.10;5.93;;;18.20;97.30;;;;;;5010791;28;20116;-85
2021/09/12 02:20:38;;;;;;;10.45;6.13;;;18.20;97.20;;;;;;5018061;28;20029;-85
2021/09/12 02:23:05;;;;;;;10.48;6.07;;;18.10;97.20;;;;;;5030462;28;20029;-85
2021/09/12 02:25:31;;;;;;;9.60;5.90;;;18.10;97.30;;;;;;5030692;28;20414;-85
2021/09/12 02:27:57;;;;;;;10.52;6.10;;;18.10;97.20;;;;;;5014024;28;20020;-85
2021/09/12 02:30:22;;;;;;;11.80;5.95;;;18.10;97.30;;;;;;5013785;28;20415;-84
2021/09/12 02:32:48;;;;;;;9.13;5.75;;;18.10;97.50;;;;;;5005019;28;20026;-85
2021/09/12 02:35:14;;;;;;;10.65;5.63;;;18.10;97.30;;;;;;4991054;28;20111;-85
2021/09/12 02:37:39;;;;;;;9.93;5.10;;;18.10;97.20;;;;;;5010833;28;20495;-84
2021/09/12 02:40:06;;;;;;;8.40;4.85;;;18.00;97.00;;;;;;5007228;28;20030;-85
2021/09/12 02:42:31;;;;;;;10.10;4.82;;;18.00;97.00;;;;;;4994159;28;20030;-84
2021/09/12 02:44:57;;;;;;;11.07;4.75;;;18.00;96.80;;;;;;5005045;28;20046;-85
2021/09/12 02:47:22;;;;;;;7.75;4.63;;;17.90;96.60;;;;;;4987369;28;20041;-85
2021/09/12 02:49:48;;;;;;;9.63;5.35;;;17.90;96.50;;;;;;5001034;28;20033;-85
2021/09/12 02:52:14;;;;;;;12.48;5.70;;;17.90;96.30;;;;;;5014490;28;20056;-85
2021/09/12 02:54:39;;;;;;;10.30;5.32;;;17.80;96.20;;;;;;5014153;28;20046;-85
2021/09/12 02:57:05;;;;;;;10.10;5.45;;;17.80;96.30;;;;;;5006798;28;20026;-85
2021/09/12 02:59:32;;;;;;;8.90;5.30;;;17.80;96.30;;;;;;5032583;28;20033;-85
2021/09/12 03:01:57;;;;;;;8.52;4.70;;;17.70;96.30;;;;;;5017349;28;20025;-85
2021/09/12 03:04:24;;;;;;;11.70;5.18;;;17.70;96.30;;;;;;5016470;28;20099;-85
2021/09/12 03:06:50;;;;;;;9.07;5.15;;;17.70;96.40;;;;;;5008403;28;20506;-85
2021/09/12 03:09:16;;;;;;;9.15;4.97;;;17.70;96.30;;;;;;5009594;28;20033;-85
2021/09/12 03:11:42;;;;;;;11.40;5.20;;;17.60;95.90;;;;;;5033555;28;20024;-85
2021/09/12 03:14:07;;;;;;;7.22;4.57;;;17.60;96.00;;;;;;5013545;28;20026;-85
2021/09/12 03:16:33;;;;;;;9.50;5.30;;;17.60;96.00;;;;;;4999120;28;20030;-85
2021/09/12 03:18:59;;;;;;;8.13;4.72;;;17.50;96.10;;;;;;5023418;28;20028;-85
2021/09/12 03:21:24;;;;;;;11.88;5.20;;;17.50;96.00;;;;;;5033249;28;20033;-85
2021/09/12 03:23:50;;;;;;;9.50;4.95;;;17.50;96.20;;;;;;5033231;28;20021;-85
2021/09/12 03:26:16;;;;;;;9.13;5.03;;;17.50;96.20;;;;;;5003047;28;20240;-85
2021/09/12 03:28:42;;;;;;;9.75;5.50;;;17.50;96.10;;;;;;5033064;28;20024;-85
2021/09/12 03:31:07;;;;;;;12.32;5.88;;;17.50;96.00;;;;;;5033140;28;20491;-85
2021/09/12 03:33:33;;;;;;;10.85;5.95;;;17.40;96.00;;;;;;5016501;28;20117;-85
2021/09/12 03:35:59;;;;;;;9.27;5.35;;;17.40;96.20;;;;;;5013340;28;20491;-85
2021/09/12 03:38:24;;;;;;;10.40;5.40;;;17.40;96.10;;;;;;5010927;28;20022;-85
2021/09/12 03:40:50;;;;;;;9.75;5.85;;;17.30;96.10;;;;;;5032954;28;20451;-85
2021/09/12 03:43:16;;;;;;;14.98;6.28;;;17.40;96.30;;;;;;5032943;28;20025;-85
2021/09/12 03:45:42;;;;;;;9.43;5.13;;;17.30;96.10;;;;;;5013101;28;20022;-85
2021/09/12 03:48:08;;;;;;;12.15;5.78;;;17.30;96.30;;;;;;5026602;28;20121;-85
2021/09/12 03:50:34;;;;;;;12.25;6.10;;;17.20;96.10;;;;;;5012778;28;20387;-85
2021/09/12 03:53:00;;;;;;;12.68;6.30;;;17.20;96.20;;;;;;5008089;28;20443;-86
2021/09/12 03:55:25;;;;;;;11.13;5.78;;;17.20;96.30;;;;;;4998776;28;20026;-86
2021/09/12 03:57:51;;;;;;;10.73;5.78;;;17.20;96.10;;;;;;5016176;28;20028;-86
2021/09/12 04:00:17;;;;;;;11.82;5.82;;;17.20;96.20;;;;;;5032535;28;20437;-86
2021/09/12 04:02:44;;;;;;;10.55;6.07;;;17.10;96.20;;;;;;5032454;28;20057;-86
2021/09/12 04:05:10;;;;;;;9.23;6.10;;;17.10;96.30;;;;;;5012510;28;20399;-86
2021/09/12 04:07:36;;;;;;;13.27;5.82;;;17.10;96.30;;;;;;5015891;28;20458;-86
2021/09/12 04:10:04;;;;;;;12.77;6.00;;;17.10;96.50;;;;;;5032408;28;20067;-86
2021/09/12 04:12:29;;;;;;;11.15;6.70;;;17.00;96.20;;;;;;5015754;28;20387;-86
2021/09/12 04:14:55;;;;;;;11.07;6.03;;;17.00;96.20;;;;;;5015681;28;20033;-86
2021/09/12 04:17:30;;;;;;;12.40;6.80;;;17.00;96.50;;;;;;4996113;28;20487;-86
2021/09/12 04:19:56;;;;;;;13.02;7.00;;;17.00;96.60;;;;;;5029731;28;20116;-86
2021/09/12 04:22:21;;;;;;;12.23;6.88;;;17.00;96.30;;;;;;5012455;28;20025;-86
2021/09/12 04:24:47;;;;;;;12.70;6.75;;;16.90;96.30;;;;;;4997339;28;20487;-86
2021/09/12 04:27:12;;;;;;;11.13;6.50;;;16.90;96.30;;;;;;5014635;28;20026;-85
2021/09/12 04:29:38;;;;;;;14.05;6.93;;;16.90;96.60;;;;;;5015394;28;20021;-86
2021/09/12 04:32:04;;;;;;;11.20;7.03;;;16.80;96.50;;;;;;5015467;28;20029;-86
2021/09/12 04:34:30;;;;;;;12.10;6.78;;;16.80;96.40;;;;;;5015413;28;20018;-86
2021/09/12 04:37:30;;;;;;;15.30;7.68;;;16.80;96.50;;;;;;5015459;28;20042;-86
2021/09/12 04:39:56;;;;;;;12.93;7.40;;;16.70;96.10;;;;;;5014913;28;20056;-86
2021/09/12 04:42:21;;;;;;;11.38;7.38;;;16.70;96.40;;;;;;5007760;28;20037;-86
2021/09/12 04:44:47;;;;;;;11.93;7.97;;;16.70;96.40;;;;;;5031719;28;20037;-86
2021/09/12 04:47:13;;;;;;;13.05;7.95;;;16.70;96.30;;;;;;5015434;28;20036;-86
2021/09/12 04:49:40;;;;;;;12.55;7.78;;;16.70;96.40;;;;;;5014135;28;20026;-86
2021/09/12 04:52:06;;;;;;;11.10;8.13;;;16.60;96.20;;;;;;5035958;23;20057;-81
2021/09/12 04:54:32;;;;;;;12.75;7.60;;;16.60;96.40;;;;;;5031346;28;20038;-81
2021/09/12 04:56:58;;;;;;;13.85;8.38;;;16.60;96.40;;;;;;5015046;28;20033;-81
2021/09/12 04:59:23;;;;;;;12.90;7.72;;;16.60;96.00;;;;;;5031388;28;20394;-81
2021/09/12 05:01:49;;;;;;;12.50;7.55;;;16.50;96.30;;;;;;5031104;28;20026;-81
2021/09/12 05:04:15;;;;;;;11.25;7.57;;;16.50;96.30;;;;;;5031237;28;20036;-80
2021/09/12 05:06:40;;;;;;;15.27;8.57;;;16.50;96.10;;;;;;5031083;28;20076;-80
2021/09/12 05:09:06;;;;;;;14.65;7.95;;;16.40;96.40;;;;;;5017917;28;20033;-80
2021/09/12 05:11:32;;;;;;;12.27;7.93;;;16.40;96.40;;;;;;5014400;28;20024;-80
2021/09/12 05:13:57;;;;;;;17.38;9.50;;;16.40;96.60;;;;;;5003447;28;20025;-80
2021/09/12 05:16:23;;;;;;;15.35;9.07;;;16.30;96.40;;;;;;5028884;28;20068;-80
2021/09/12 05:18:51;;;;;;;15.45;8.85;;;16.30;96.40;;;;;;5005461;28;20061;-81
2021/09/12 05:21:17;;;;;;;16.35;9.27;;;16.20;96.70;;;;;;5010713;28;20475;-81
2021/09/12 05:23:43;;;;;;;13.48;9.73;;;16.30;96.70;;;;;;5023290;28;20463;-80
2021/09/12 05:26:09;;;;;;;14.95;9.95;;;16.20;96.80;;;;;;5008703;28;20040;-81
2021/09/12 05:28:35;;;;;;;12.35;9.55;;;16.20;96.80;;;;;;5031008;28;20091;-80
2021/09/12 05:31:02;;;;;;;19.40;10.32;;;16.20;96.80;;;;;;5002842;28;20057;-80
2021/09/12 05:33:29;;;;;;;14.50;9.88;;;16.20;96.80;;;;;;5028984;28;20053;-80
2021/09/12 05:36:40;;;;;;;15.15;9.88;;;16.20;96.70;;;;;;5030860;28;20032;-81
2021/09/12 05:39:06;;;;;;;14.50;10.53;;;16.10;96.60;;;;;;5016989;28;20149;-80
2021/09/12 05:41:31;;;;;;;15.43;10.48;;;16.10;96.90;;;;;;5014471;28;20389;-80
2021/09/12 05:43:58;;;;;;;14.52;10.45;;;16.10;96.80;;;;;;5014450;28;20443;-80
2021/09/12 05:46:24;;;;;;;20.63;11.50;;;16.10;96.90;;;;;;5016715;28;20360;-80
2021/09/12 05:48:50;;;;;;;14.43;10.43;;;16.10;96.90;;;;;;5030866;28;20027;-80
2021/09/12 05:51:16;;;;;;;15.70;10.70;;;16.00;97.00;;;;;;5017241;28;20037;-81
2021/09/12 05:53:41;;;;;;;15.25;11.07;;;16.00;96.90;;;;;;5034046;28;20025;-81
2021/09/12 05:56:07;;;;;;;17.10;11.43;;;16.00;96.90;;;;;;5050565;28;20033;-81
2021/09/12 05:58:33;;;;;;;15.65;10.38;;;16.00;97.00;;;;;;5031769;28;20454;-81
2021/09/12 06:01:02;;;;;;;14.10;10.13;;;16.00;97.10;;;;;;5001135;28;20033;-80
2021/09/12 06:03:27;;;;;;;15.88;10.60;;;16.00;97.20;;;;;;5014365;28;20462;-80
2021/09/12 06:05:53;;;;;;;17.02;10.82;;;16.00;97.10;;;;;;5004490;28;20053;-87
2021/09/12 06:08:19;;;;;;;15.13;9.90;;;16.00;97.10;;;;;;5040657;28;20060;-87
2021/09/12 06:10:45;;;;;;;17.70;10.18;;;16.00;97.20;;;;;;4983985;28;20071;-87
2021/09/12 06:13:10;;;;;;;15.98;10.73;;;16.00;97.30;;;;;;4999942;28;20120;-87
2021/09/12 06:18:58;;;;;;;14.32;9.48;;;16.00;97.10;;;;;;5036501;28;20082;-86
2021/09/12 06:21:24;;;;;;;15.57;10.70;;;16.00;97.10;;;;;;5020013;28;20049;-86
2021/09/12 06:23:59;;;;;;;18.05;10.82;;;15.90;97.10;;;;;;5019691;28;20071;-87
2021/09/12 06:26:25;;;;;;;16.10;10.57;;;15.90;97.20;;;;;;5003544;28;20033;-87
2021/09/12 06:28:52;;;;;;;17.00;10.68;;;15.90;97.30;;;;;;5035491;28;20028;-86
2021/09/12 06:31:17;;;;;;;17.88;10.38;;;15.90;97.30;;;;;;5023176;28;20048;-87
2021/09/12 06:33:46;;;;;;;18.58;10.80;;;15.80;97.20;;;;;;5039649;28;20467;-87
2021/09/12 06:36:12;;;;;;;16.17;10.48;;;15.80;97.20;;;;;;5019817;28;20108;-86
2021/09/12 06:38:38;;;;;;;15.80;10.30;;;15.80;97.40;;;;;;5037898;28;20471;-87
2021/09/12 06:41:04;;;;;;;14.48;9.18;;;15.80;97.40;;;;;;5003612;28;20030;-87
2021/09/12 06:43:30;;;;;;;15.25;9.50;;;15.90;97.60;;;;;;5019584;28;20036;-88
2021/09/12 06:45:56;;;;;;;15.10;9.35;;;15.90;97.60;;;;;;5005350;28;20073;-87
2021/09/12 06:48:21;;;;;;;13.57;9.63;;;15.90;97.50;;;;;;5027308;28;20014;-87
2021/09/12 06:50:47;;;;;;;14.15;9.32;;;16.00;97.80;;;;;;5043286;28;20025;-87
2021/09/12 06:53:13;;;;;;;16.67;9.20;;;15.90;98.20;;;;;;5035967;28;20072;-87
2021/09/12 06:55:40;;;;;;;14.38;8.57;;;16.00;98.50;;;;;;5039879;28;20037;-88
2021/09/12 06:58:06;;;;;;;17.35;9.73;;;16.00;98.20;;;;;;5052258;28;20017;-88
2021/09/12 07:00:32;;;;;;;15.68;8.90;;;16.00;98.00;;;;;;5019240;28;20033;-87
2021/09/12 07:02:58;;;;;;;13.57;8.63;;;16.10;98.00;;;;;;5019094;28;20092;-87
2021/09/12 07:05:24;;;;;;;14.40;8.93;;;16.10;97.90;;;;;;5019007;28;20426;-88
2021/09/12 07:07:50;;;;;;;12.90;8.00;;;16.10;98.00;;;;;;5018912;28;20018;-88
2021/09/12 07:10:19;;;;;;;15.23;9.25;;;16.10;98.00;;;;;;5029694;28;20053;-88
2021/09/12 07:12:46;;;;;;;15.32;9.15;;;16.10;97.90;;;;;;5015859;28;20018;-87
2021/09/12 07:15:12;;;;;;;13.57;8.07;;;16.10;98.20;;;;;;5015534;28;20037;-87
2021/09/12 07:17:39;;;;;;;11.15;7.95;;;16.10;97.90;;;;;;5015319;28;20475;-87
2021/09/12 07:20:05;;;;;;;11.93;7.40;;;16.20;98.00;;;;;;5016652;28;20030;-87
2021/09/12 07:22:31;;;;;;;15.00;8.48;;;16.20;98.30;;;;;;5009072;28;20107;-88
2021/09/12 07:24:57;;;;;;;15.43;8.60;;;16.20;98.10;;;;;;5035252;28;20483;-88
2021/09/12 07:27:23;;;;;;;14.75;8.43;;;16.30;98.20;;;;;;5018824;28;20026;-87
2021/09/12 07:29:49;;;;;;;15.40;9.45;;;16.30;98.00;;;;;;5034926;28;20032;-87
2021/09/12 07:32:14;;;;;;;16.42;8.73;;;16.30;98.10;;;;;;5018480;28;20022;-87
2021/09/12 07:34:41;;;;;;;18.83;8.95;;;16.40;97.80;;;;;;5008360;28;20022;-87
2021/09/12 07:37:07;;;;;;;14.23;7.40;;;16.40;97.70;;;;;;5025847;28;20030;-87
2021/09/12 07:39:38;;;;;;;18.15;8.43;;;16.40;98.00;;;;;;5033384;28;20040;-87
2021/09/12 07:42:05;;;;;;;14.25;8.25;;;16.50;98.20;;;;;;5033116;28;20068;-87
2021/09/12 07:44:31;;;;;;;10.68;7.65;;;16.60;98.20;;;;;;5016626;28;20108;-87
2021/09/12 07:46:56;;;;;;;14.55;8.30;;;16.60;98.30;;;;;;5032793;28;20040;-87
2021/09/12 07:49:29;;;;;;;12.60;8.07;;;16.70;98.30;;;;;;5016482;28;20041;-87
2021/09/12 07:51:54;;;;;;;18.02;9.15;;;16.70;98.40;;;;;;5024007;28;20046;-87
2021/09/12 07:54:20;;;;;;;13.25;8.07;;;16.80;98.30;;;;;;5013033;28;20038;-87
2021/09/12 07:56:46;;;;;;;13.88;9.00;;;16.90;98.20;;;;;;5009695;28;20411;-87
2021/09/12 07:59:11;;;;;;;16.27;8.90;;;16.90;98.10;;;;;;5011768;28;20034;-87
2021/09/12 08:01:37;;;;;;;18.38;8.43;;;17.00;98.10;;;;;;4996638;28;20034;-87
2021/09/12 08:04:03;;;;;;;19.17;9.00;;;17.00;98.10;;;;;;5012793;28;20096;-87
2021/09/12 08:06:28;;;;;;;19.55;8.90;;;17.10;97.80;;;;;;5009482;28;20026;-87
2021/09/12 08:08:54;;;;;;;18.67;9.40;;;17.10;98.10;;;;;;5005875;28;20391;-87
2021/09/12 08:11:26;;;;;;;14.50;8.10;;;17.20;97.90;;;;;;5012431;28;20029;-87
2021/09/12 08:13:51;;;;;;;15.45;8.02;;;17.30;98.00;;;;;;4984278;28;20568;-87
2021/09/12 08:16:17;;;;;;;15.20;8.57;;;17.30;98.00;;;;;;5025107;28;20120;-87
2021/09/12 08:18:43;;;;;;;17.75;8.57;;;17.40;97.70;;;;;;4996700;28;20068;-87
2021/09/12 08:21:10;;;;;;;12.15;7.50;;;17.40;97.90;;;;;;5010716;28;20614;-87
2021/09/12 08:23:36;;;;;;;15.38;9.50;;;17.50;97.90;;;;;;5010812;28;20030;-87
2021/09/12 08:26:02;;;;;;;13.73;8.63;;;17.60;97.80;;;;;;4981939;28;20506;-87
2021/09/12 08:28:27;;;;;;;16.90;9.07;;;17.70;97.30;;;;;;5015017;28;20045;-87
2021/09/12 08:30:53;;;;;;;14.50;9.05;;;17.60;97.30;;;;;;5014206;28;20100;-88
2021/09/12 08:33:19;;;;;;;14.40;8.68;;;17.70;97.40;;;;;;5025686;28;20033;-88
2021/09/12 08:35:45;;;;;;;16.40;8.70;;;17.80;97.30;;;;;;4994126;28;20037;-87
2021/09/12 08:38:13;;;;;;;16.48;8.73;;;17.80;96.50;;;;;;4982646;28;20440;-87
2021/09/12 08:40:39;;;;;;;12.77;8.02;;;17.80;97.10;;;;;;5014649;28;20033;-87
2021/09/12 08:43:08;;;;;;;15.77;8.15;;;17.90;97.10;;;;;;4997622;28;20030;-88
2021/09/12 08:45:34;;;;;;;17.48;8.60;;;18.00;97.40;;;;;;4998066;28;20550;-88
2021/09/12 08:48:00;;;;;;;16.13;8.90;;;18.00;96.80;;;;;;5015188;28;20034;-89
2021/09/12 08:50:26;;;;;;;15.18;7.75;;;18.10;97.00;;;;;;4997550;28;20069;-89
2021/09/12 08:52:52;;;;;;;15.88;8.50;;;18.10;96.90;;;;;;4986386;28;20113;-87
2021/09/12 08:58:39;;;;;;;10.82;6.22;;;18.30;96.50;;;;;;4995556;28;20025;-88
2021/09/12 09:01:05;;;;;;;12.80;7.22;;;18.30;97.10;;;;;;4978111;28;20026;-88
2021/09/12 09:03:41;;;;;;;14.93;7.70;;;18.40;97.10;;;;;;4994109;28;20384;-88
2021/09/12 09:06:34;;;;;;;12.85;7.28;;;18.50;97.40;;;;;;4977783;28;20038;-89
2021/09/12 09:09:00;;;;;;;15.18;7.55;;;18.60;97.20;;;;;;4994186;28;20472;-88
2021/09/12 09:11:27;;;;;;;16.98;7.88;;;18.70;97.00;;;;;;4993880;28;20023;-88
2021/09/12 09:13:53;;;;;;;10.27;6.50;;;18.80;96.50;;;;;;4977948;28;20034;-88
2021/09/12 09:16:28;;;;;;;14.07;8.63;;;18.80;96.70;;;;;;4977725;28;20361;-88
2021/09/12 09:19:06;;;;;;;14.40;7.97;;;18.90;96.20;;;;;;5002894;28;20034;-88
2021/09/12 09:21:33;;;;;;;12.98;7.45;;;18.90;95.80;;;;;;4997499;28;20434;-88
2021/09/12 09:24:15;;;;;;;13.40;7.55;;;18.90;96.40;;;;;;4998635;28;20022;-88
2021/09/12 09:27:01;;;;;;;12.10;7.38;;;19.00;96.80;;;;;;4995139;28;20057;-88
2021/09/12 09:29:28;;;;;;;14.48;8.07;;;19.00;96.60;;;;;;4995014;28;20046;-88
2021/09/12 09:32:14;;;;;;;11.30;7.18;;;19.10;96.00;;;;;;4993753;28;20120;-88
2021/09/12 09:34:44;;;;;;;11.50;7.53;;;19.10;96.50;;;;;;4994162;28;20403;-81
2021/09/12 09:37:14;;;;;;;10.38;7.18;;;19.10;96.40;;;;;;5003551;28;20113;-81
2021/09/12 09:39:49;;;;;;;15.27;8.75;;;19.20;96.60;;;;;;5007904;28;20030;-81
2021/09/12 09:42:35;;;;;;;13.50;6.80;;;19.20;96.30;;;;;;5010842;28;20018;-81
2021/09/12 09:45:14;;;;;;;11.52;6.68;;;19.30;96.50;;;;;;5007143;28;20089;-82
2021/09/12 09:47:44;;;;;;;13.85;7.53;;;19.40;96.80;;;;;;5014729;28;20025;-81
2021/09/12 09:50:29;;;;;;;12.75;6.70;;;19.40;96.70;;;;;;5007364;28;20030;-81
2021/09/12 09:52:56;;;;;;;12.32;8.18;;;19.50;96.20;;;;;;5020391;28;20176;-81
2021/09/12 09:55:26;;;;;;;14.48;8.13;;;19.60;96.40;;;;;;5008832;28;20134;-81
2021/09/12 09:57:55;;;;;;;11.63;7.07;;;19.60;96.10;;;;;;5007951;28;20101;-81
2021/09/12 10:00:23;;;;;;;12.20;7.78;;;19.60;96.30;;;;;;5033239;28;20387;-81
2021/09/12 10:02:50;;;;;;;15.00;8.75;;;19.60;96.40;;;;;;5013182;28;20638;-82
2021/09/12 10:05:17;;;;;;;12.93;8.00;;;19.60;95.20;;;;;;5015033;28;20030;-81
2021/09/12 10:07:43;;;;;;;12.68;7.10;;;19.60;95.80;;;;;;5011061;28;20029;-81
2021/09/12 10:10:14;;;;;;;13.88;7.75;;;19.70;96.00;;;;;;5026147;28;20472;-82
2021/09/12 10:12:53;;;;;;;10.07;6.40;;;19.70;95.70;;;;;;5035245;28;20056;-81
2021/09/12 10:15:26;;;;;;;11.25;7.07;;;19.70;96.10;;;;;;5030260;28;20018;-81
2021/09/12 10:17:53;;;;;;;14.18;7.55;;;19.70;94.90;;;;;;5025083;28;20390;-81
2021/09/12 10:20:25;;;;;;;11.68;7.00;;;19.80;95.00;;;;;;5017146;28;20445;-81
2021/09/12 10:22:56;;;;;;;11.48;7.25;;;19.80;95.20;;;;;;5028408;28;20042;-81
2021/09/12 10:25:25;;;;;;;12.18;7.15;;;19.80;95.30;;;;;;5022761;28;20040;-81
2021/09/12 10:28:05;;;;;;;13.95;8.63;;;19.90;95.20;;;;;;5020559;28;20105;-81
2021/09/12 10:30:37;;;;;;;12.73;7.70;;;19.90;94.70;;;;;;4995853;28;20022;-81
2021/09/12 10:33:06;;;;;;;12.32;7.93;;;19.90;94.70;;;;;;4996126;28;20167;-81
2021/09/12 10:35:51;;;;;;;13.63;8.05;;;19.90;94.30;;;;;;4995488;28;20061;-82
2021/09/12 10:38:29;;;;;;;12.90;7.63;;;19.90;94.40;;;;;;5015265;28;20037;-81
2021/09/12 10:40:55;;;;;;;12.57;8.60;;;19.90;94.50;;;;;;5025025;28;20037;-81
2021/09/12 10:43:34;;;;;;;16.90;10.63;;;19.90;94.60;;;;;;5028216;28;20029;-81
2021/09/12 10:46:05;;;;;;;17.40;10.50;;;20.00;94.10;;;;;;5029893;28;20056;-81
2021/09/12 10:48:35;;;;;;;12.10;9.25;;;20.00;93.90;;;;;;5010238;28;20027;-81
2021/09/12 10:51:03;;;;;;;14.18;10.73;;;20.00;94.40;;;;;;5069609;22;20057;-84
2021/09/12 10:53:47;;;;;;;17.95;10.63;;;20.00;94.00;;;;;;5035566;28;20143;-84
2021/09/12 10:56:19;;;;;;;15.93;10.95;;;20.00;93.60;;;;;;5031310;28;20025;-84
2021/09/12 10:58:49;;;;;;;14.27;10.60;;;20.00;94.50;;;;;;5037244;28;20072;-84
2021/09/12 11:01:25;;;;;;;15.38;11.07;;;20.10;94.10;;;;;;5037638;28;20343;-85
2021/09/12 11:03:56;;;;;;;14.20;11.18;;;20.10;94.20;;;;;;5054560;28;20493;-84
2021/09/12 11:06:23;;;;;;;15.52;12.20;;;20.10;94.50;;;;;;5036063;28;20032;-84
2021/09/12 11:09:15;;;;;;;16.92;13.52;;;20.10;94.00;;;;;;5019783;28;20446;-85
2021/09/12 11:11:41;;;;;;;14.35;11.15;;;20.10;93.50;;;;;;5033453;28;20429;-85
2021/09/12 11:14:08;;;;;;;19.77;12.65;;;20.10;94.10;;;;;;5036940;28;20028;-84
2021/09/12 11:16:33;;;;;;;17.67;11.68;;;20.10;93.80;;;;;;5005774;28;20478;-88
2021/09/12 11:19:02;;;;;;;14.02;11.05;;;20.10;94.10;;;;;;5021794;28;20043;-89
2021/09/12 11:22:00;;;;;;;18.23;13.68;;;20.10;94.40;;;;;;5040409;28;20556;-92
2021/09/12 11:24:30;;;;;;;20.73;13.90;;;20.20;94.20;;;;;;5027714;28;20017;-89
2021/09/12 11:27:01;;;;;;;19.27;13.93;;;20.20;94.30;;;;;;5037422;28;20421;-91
2021/09/12 11:29:31;;;;;;;18.77;13.82;;;20.20;94.10;;;;;;5037861;28;20028;-89
2021/09/12 11:32:08;;;;;;;19.30;12.70;;;20.30;94.20;;;;;;5050001;28;20017;-90
2021/09/12 11:34:36;;;;;;;16.73;11.65;;;20.30;94.20;;;;;;5036851;28;20017;-90
2021/09/12 11:37:12;;;;;;;16.17;11.65;;;20.40;94.50;;;;;;5013859;28;20025;-90
2021/09/12 11:39:40;;;;;;;17.67;13.98;;;20.50;94.60;;;;;;5035408;28;20428;-89
2021/09/12 11:42:10;;;;;;;21.48;13.70;;;20.50;94.20;;;;;;5038439;28;20531;-88
2021/09/12 11:44:37;;;;;;;19.27;13.60;;;20.50;93.20;;;;;;5037924;28;20045;-87
2021/09/12 11:47:20;;;;;;;18.00;13.25;;;20.60;94.10;;;;;;5056072;28;20370;-87
2021/09/12 11:49:59;;;;;;;19.52;13.95;;;20.60;93.90;;;;;;5037720;28;20017;-86
2021/09/12 11:52:35;;;;;;;16.73;13.52;;;20.60;93.40;;;;;;5034116;28;20045;-87
2021/09/12 11:55:01;;;;;;;21.20;14.40;;;20.50;93.90;;;;;;5024218;28;20389;-87
2021/09/12 11:57:27;;;;;;;18.50;13.63;;;20.60;93.90;;;;;;5037843;28;20024;-88
2021/09/12 11:59:52;;;;;;;17.60;13.18;;;20.60;94.00;;;;;;5036848;28;20401;-85
2021/09/12 12:02:24;;;;;;;18.40;13.23;;;20.60;94.10;;;;;;5037361;28;20033;-86
2021/09/12 12:04:50;;;;;;;18.10;13.40;;;20.60;94.20;;;;;;5037287;28;20021;-87
2021/09/12 12:07:17;;;;;;;17.23;13.10;;;20.70;94.20;;;;;;5021080;28;20025;-87
2021/09/12 12:09:49;;;;;;;16.13;13.43;;;20.70;94.30;;;;;;5037725;28;20021;-88
2021/09/12 12:12:20;;;;;;;17.67;13.38;;;20.70;94.10;;;;;;5037361;28;20024;-86
2021/09/12 12:14:51;;;;;;;17.77;13.52;;;20.80;94.20;;;;;;5020214;28;20123;-87
2021/09/12 12:17:20;;;;;;;16.92;12.60;;;20.80;94.30;;;;;;5053893;28;20075;-85
2021/09/12 12:19:47;;;;;;;19.73;13.18;;;20.90;94.60;;;;;;5036665;28;20082;-87
2021/09/12 12:22:14;;;;;;;18.05;13.82;;;20.90;94.40;;;;;;5035685;28;20433;-88
2021/09/12 12:24:42;;;;;;;20.80;15.68;;;21.00;94.40;;;;;;5031103;28;20072;-89
2021/09/12 12:27:13;;;;;;;21.27;13.52;;;21.00;93.80;;;;;;5017583;28;20049;-88
2021/09/12 12:29:42;;;;;;;;;;;21.10;94.00;;;;;;5034887;28;20100;-89
2021/09/12 12:32:10;;;;;;;16.48;12.20;;;21.10;93.70;;;;;;5036531;28;20425;-88
2021/09/12 12:34:42;;;;;;;15.13;11.77;;;21.20;94.10;;;;;;5036927;28;20104;-88
2021/09/12 12:37:10;;;;;;;16.58;12.38;;;21.20;94.20;;;;;;5055263;28;20053;-88
2021/09/12 12:39:37;;;;;;;18.35;15.13;;;21.30;94.20;;;;;;5054743;28;20078;-88
2021/09/12 12:42:03;;;;;;;15.88;12.68;;;21.30;93.60;;;;;;5036352;28;20112;-87
2021/09/12 12:44:37;;;;;;;13.75;11.68;;;21.40;94.00;;;;;;5036274;28;20148;-88
2021/09/12 12:47:03;;;;;;;16.98;14.25;;;21.40;94.20;;;;;;5021701;28;20025;-88
2021/09/12 12:49:32;;;;;;;16.27;13.18;;;21.50;93.30;;;;;;5017494;28;20029;-87